Time;durP1;ratioP1;P1;durP2;ratioP2;P2;SDS_P1;SDS_P2;PMS_P1;PMS_P2;Temp;Humidity;BMP_temperature;BMP_pressure;BME280_temperature;BME280_humidity;BME280_pressure;Samples;Min_cycle;Max_cycle;Signal;HPM_P1;HPM_P2
2023/01/04 00:01:12;;;;;;;2.50;1.83;;;;;;;8.60;66.30;101969.97;4907531;28;98023;-50
2023/01/04 00:03:38;;;;;;;1.30;1.20;;;;;;;8.61;66.41;101957.00;4908002;28;96876;-52
2023/01/04 00:06:05;;;;;;;4.17;1.37;;;;;;;8.63;66.51;101957.31;4907087;28;96963;-50
2023/01/04 00:08:31;;;;;;;1.60;1.17;;;;;;;8.64;66.28;101962.38;4906912;28;96879;-50
2023/01/04 00:11:01;;;;;;;1.60;1.50;;;;;;;8.68;66.40;101945.78;4907861;28;97774;-52
2023/01/04 00:13:26;;;;;;;1.23;1.13;;;;;;;8.71;66.41;101936.66;4907372;28;96905;-52
2023/01/04 00:15:51;;;;;;;1.23;1.13;;;;;;;8.73;66.28;101936.97;4905808;28;98539;-53
2023/01/04 00:18:17;;;;;;;2.03;1.63;;;;;;;8.77;66.37;101924.66;4904878;28;97369;-50
2023/01/04 00:20:42;;;;;;;2.73;1.17;;;;;;;8.81;66.46;101922.53;4906560;28;97072;-50
2023/01/04 00:23:07;;;;;;;3.53;1.20;;;;;;;8.84;66.46;101916.16;4907791;28;97153;-50
2023/01/04 00:25:33;;;;;;;1.47;1.30;;;;;;;8.87;66.26;101909.75;4903746;28;96855;-51
2023/01/04 00:27:58;;;;;;;3.40;1.40;;;;;;;8.91;66.37;101910.38;4905081;28;98104;-50
2023/01/04 00:30:23;;;;;;;2.67;1.13;;;;;;;8.94;66.10;101901.25;4901144;28;96813;-50
2023/01/04 00:32:49;;;;;;;1.93;1.27;;;;;;;8.97;66.46;101902.34;4905645;28;96894;-50
2023/01/04 00:35:14;;;;;;;4.73;1.60;;;;;;;8.98;66.28;101901.88;4907789;28;97525;-50
2023/01/04 00:37:40;;;;;;;3.00;1.50;;;;;;;9.00;66.21;101899.47;4906012;28;97449;-51
2023/01/04 00:40:05;;;;;;;1.47;1.10;;;;;;;9.02;66.20;101888.03;4905482;28;97219;-51
2023/01/04 00:42:31;;;;;;;2.97;0.97;;;;;;;9.02;66.16;101877.81;4904910;28;96973;-50
2023/01/04 00:44:56;;;;;;;1.77;1.27;;;;;;;9.02;66.21;101875.06;4906353;28;97532;-50
2023/01/04 00:47:21;;;;;;;2.00;1.30;;;;;;;9.04;66.27;101869.16;4904071;28;101541;-51
2023/01/04 00:49:47;;;;;;;1.23;0.90;;;;;;;9.05;66.21;101863.19;4906418;28;96856;-50
2023/01/04 00:52:12;;;;;;;1.40;1.30;;;;;;;9.02;66.11;101861.34;4904720;28;97116;-51
2023/01/04 00:54:37;;;;;;;6.13;1.33;;;;;;;9.00;66.13;101855.53;4906236;28;97859;-51
2023/01/04 00:57:04;;;;;;;2.60;1.17;;;;;;;8.99;66.09;101851.28;4906549;28;96892;-50
2023/01/04 00:59:29;;;;;;;2.27;0.93;;;;;;;8.97;66.07;101850.97;4906324;28;97524;-51
2023/01/04 01:01:55;;;;;;;1.60;1.00;;;;;;;8.95;65.98;101842.41;4905705;28;97162;-50
2023/01/04 01:04:23;;;;;;;2.00;0.90;;;;;;;8.95;66.04;101853.38;4905789;28;97129;-50
2023/01/04 01:06:49;;;;;;;0.90;0.90;;;;;;;8.92;66.01;101840.56;4905046;28;97930;-51
2023/01/04 01:09:15;;;;;;;1.27;1.17;;;;;;;8.93;66.17;101835.84;4905193;28;97255;-53
2023/01/04 01:11:41;;;;;;;3.20;1.47;;;;;;;8.93;66.19;101838.59;4906727;28;96862;-51
2023/01/04 01:14:07;;;;;;;1.20;1.10;;;;;;;8.94;65.99;101832.66;4906664;28;97243;-51
2023/01/04 01:16:33;;;;;;;1.63;0.90;;;;;;;8.95;66.18;101831.41;4906510;28;97417;-51
2023/01/04 01:18:59;;;;;;;2.30;1.00;;;;;;;8.95;65.94;101828.66;4905170;28;97167;-51
2023/01/04 01:21:27;;;;;;;1.37;0.90;;;;;;;8.96;65.88;101812.97;4906842;28;97341;-50
2023/01/04 01:23:54;;;;;;;1.63;1.00;;;;;;;8.95;66.04;101806.72;4906066;28;97450;-50
2023/01/04 01:26:21;;;;;;;1.90;0.93;;;;;;;8.94;66.03;101796.19;4905598;28;97447;-51
2023/01/04 01:28:47;;;;;;;0.90;0.90;;;;;;;8.92;65.87;101791.16;4903663;28;97221;-50
2023/01/04 01:31:19;;;;;;;1.93;1.00;;;;;;;8.90;65.91;101792.84;4906054;28;97130;-51
2023/01/04 01:33:46;;;;;;;1.17;1.07;;;;;;;8.89;65.93;101783.06;4905953;28;96764;-51
2023/01/04 01:36:13;;;;;;;1.90;1.03;;;;;;;8.88;66.15;101776.06;4905880;28;101229;-51
2023/01/04 01:38:39;;;;;;;1.10;0.97;;;;;;;8.88;66.04;101768.59;4905624;28;101223;-51
2023/01/04 01:41:06;;;;;;;2.23;1.03;;;;;;;8.88;66.18;101767.84;4903686;28;97063;-50
2023/01/04 01:44:01;;;;;;;1.20;0.83;;;;;;;8.89;66.06;101763.84;4898814;28;96927;-51
2023/01/04 01:46:32;;;;;;;1.10;0.80;;;;;;;8.87;65.94;101756.09;4904703;28;101787;-51
2023/01/04 01:49:23;;;;;;;1.10;0.83;;;;;;;8.89;65.86;101745.41;4905037;28;97202;-51
2023/01/04 01:51:51;;;;;;;1.07;1.07;;;;;;;8.90;65.73;101738.72;4900575;28;97067;-51
2023/01/04 01:54:21;;;;;;;0.97;0.80;;;;;;;8.90;66.03;101735.97;4905862;28;97206;-51
2023/01/04 01:56:50;;;;;;;4.50;1.00;;;;;;;8.91;65.89;101736.75;4904653;28;98138;-50
2023/01/04 01:59:17;;;;;;;5.70;0.80;;;;;;;8.91;65.78;101723.03;4904707;28;97076;-50
2023/01/04 02:01:43;;;;;;;1.47;1.03;;;;;;;8.92;65.81;101717.06;4904226;28;96995;-51
2023/01/04 02:04:10;;;;;;;1.67;0.90;;;;;;;8.94;65.80;101716.63;4904680;28;96723;-51
2023/01/04 02:06:40;;;;;;;1.17;1.00;;;;;;;8.93;65.92;101715.09;4904833;28;97946;-50
2023/01/04 02:09:05;;;;;;;1.30;1.00;;;;;;;8.93;65.88;101712.34;4905691;28;101476;-49
2023/01/04 02:11:31;;;;;;;1.60;1.20;;;;;;;8.93;65.70;101696.63;4905528;28;97272;-51
2023/01/04 02:16:51;;;;;;;1.20;0.97;;;;;;;8.92;65.90;101686.88;4903708;28;101998;-51
2023/01/04 02:19:32;;;;;;;0.80;0.80;;;;;;;8.93;65.90;101682.91;4905125;28;100204;-51
2023/01/04 02:22:06;;;;;;;0.80;0.80;;;;;;;8.97;65.95;101675.31;4903966;28;96816;-51
2023/01/04 02:25:09;;;;;;;1.33;0.93;;;;;;;9.01;65.69;101667.69;4904539;28;97087;-51
2023/01/04 02:27:46;;;;;;;1.20;0.63;;;;;;;9.02;65.88;101663.72;4902322;28;100990;-50
2023/01/04 02:30:34;;;;;;;0.93;0.83;;;;;;;9.06;65.69;101655.34;4904006;28;97262;-51
2023/01/04 02:33:24;;;;;;;3.77;1.30;;;;;;;9.10;65.53;101652.44;4904827;28;97018;-51
2023/01/04 02:35:58;;;;;;;1.57;0.70;;;;;;;9.13;65.77;101641.28;4902787;28;97108;-51
2023/01/04 02:38:30;;;;;;;1.10;1.00;;;;;;;9.18;65.83;101629.72;4903563;28;97292;-50
2023/01/04 02:41:05;;;;;;;1.10;0.97;;;;;;;9.23;65.66;101634.59;4904458;28;96681;-50
2023/01/04 02:46:44;;;;;;;1.00;0.80;;;;;;;9.30;65.55;101608.81;4906046;28;96815;-51
2023/01/04 02:51:53;;;;;;;1.37;0.90;;;;;;;9.37;65.84;101605.75;4902015;28;100229;-49
2023/01/04 02:54:24;;;;;;;2.00;1.00;;;;;;;9.41;65.54;101587.91;4900118;28;96897;-49
2023/01/04 02:57:17;;;;;;;0.80;0.80;;;;;;;9.43;65.26;101581.94;4904851;28;96828;-51
2023/01/04 03:00:14;;;;;;;3.97;1.33;;;;;;;9.49;65.34;101599.31;4902640;28;101763;-51
2023/01/04 03:06:17;;;;;;;1.40;1.00;;;;;;;9.57;65.14;101565.56;4905180;28;97713;-50
2023/01/04 03:08:53;;;;;;;0.87;0.87;;;;;;;9.65;65.26;101546.78;4904712;28;96942;-51
2023/01/04 03:14:15;;;;;;;1.93;1.20;;;;;;;9.73;65.11;101534.97;4904794;28;100341;-51
2023/01/04 03:16:43;;;;;;;0.70;0.70;;;;;;;9.80;65.37;101528.38;4905868;28;96749;-50
2023/01/04 03:19:12;;;;;;;1.20;0.90;;;;;;;9.85;65.21;101518.75;4907320;28;96827;-50
2023/01/04 03:21:43;;;;;;;0.80;0.80;;;;;;;9.90;65.13;101512.59;4905105;28;100800;-49
2023/01/04 03:35:51;;;;;;;1.87;1.27;;;;;;;10.02;65.15;101476.66;4907217;28;100926;-51
2023/01/04 03:50:24;;;;;;;3.07;0.83;;;;;;;10.04;65.67;101445.94;4907207;28;97069;-49
2023/01/04 03:52:51;;;;;;;1.20;0.80;;;;;;;10.05;65.78;101437.22;4906291;28;96980;-51
2023/01/04 03:55:17;;;;;;;0.97;0.97;;;;;;;10.04;65.71;101440.44;4907701;28;97139;-49
2023/01/04 03:57:44;;;;;;;2.60;0.93;;;;;;;10.05;65.94;101437.22;4908219;28;97239;-51
2023/01/04 04:00:15;;;;;;;3.33;1.40;;;;;;;10.05;65.92;101430.94;4906881;28;96878;-51
2023/01/04 04:02:41;;;;;;;1.30;1.20;;;;;;;10.05;65.85;101426.22;4906582;28;97434;-51
2023/01/04 04:10:35;;;;;;;2.83;1.00;;;;;;;9.99;66.25;101402.59;4906378;28;96909;-51
2023/01/04 04:13:00;;;;;;;2.57;1.30;;;;;;;9.99;66.41;101406.09;4906992;28;97420;-52
2023/01/04 04:15:28;;;;;;;0.93;0.70;;;;;;;10.00;66.39;101401.38;4905812;28;97406;-50
2023/01/04 04:17:54;;;;;;;1.10;0.70;;;;;;;10.00;66.53;101393.13;4904265;28;97033;-52
2023/01/04 04:20:19;;;;;;;6.60;1.13;;;;;;;9.97;66.52;101394.81;4908335;28;97050;-52
2023/01/04 04:22:44;;;;;;;1.50;1.10;;;;;;;9.94;66.64;101406.75;4906288;28;97262;-51
2023/01/04 04:25:10;;;;;;;1.10;1.00;;;;;;;9.96;66.75;101381.56;4902600;28;97277;-51
2023/01/04 04:27:35;;;;;;;3.83;1.20;;;;;;;9.95;66.72;101380.03;4903673;28;97352;-52
2023/01/04 04:30:01;;;;;;;1.10;1.07;;;;;;;9.93;66.84;101375.00;4904716;28;96929;-51
2023/01/04 04:32:27;;;;;;;1.13;0.87;;;;;;;9.92;66.95;101359.72;4904172;28;97080;-52
2023/01/04 04:34:52;;;;;;;1.93;1.27;;;;;;;9.95;67.13;101355.28;4903494;28;97894;-51
2023/01/04 04:37:17;;;;;;;1.57;0.80;;;;;;;9.92;67.14;101345.22;4903640;28;104902;-52
2023/01/04 04:39:43;;;;;;;1.03;0.93;;;;;;;9.93;67.21;101335.75;4906643;28;97387;-51
2023/01/04 04:42:08;;;;;;;2.20;1.13;;;;;;;9.96;67.17;101338.31;4907402;28;97642;-52
2023/01/04 04:44:34;;;;;;;3.03;0.90;;;;;;;10.00;67.31;101341.66;4906568;28;97504;-51
2023/01/04 04:46:59;;;;;;;1.53;1.10;;;;;;;10.01;67.12;101328.66;4905738;28;97138;-53
2023/01/04 04:49:25;;;;;;;3.10;1.30;;;;;;;9.98;67.39;101324.13;4907252;28;96937;-52
2023/01/04 04:51:50;;;;;;;1.60;1.03;;;;;;;9.96;67.48;101310.81;4907692;28;97245;-52
2023/01/04 04:54:21;;;;;;;4.00;0.87;;;;;;;9.95;67.60;101317.56;4905102;28;97419;-52
2023/01/04 04:56:48;;;;;;;1.27;1.03;;;;;;;9.98;67.51;101305.63;4906367;28;97063;-53
2023/01/04 04:59:13;;;;;;;2.20;1.20;;;;;;;9.98;67.66;101293.88;4906685;28;97476;-53
2023/01/04 05:01:39;;;;;;;4.00;1.10;;;;;;;10.00;67.87;101294.16;4906729;28;96871;-53
2023/01/04 05:04:04;;;;;;;1.93;1.00;;;;;;;9.98;67.83;101291.88;4906201;28;97810;-52
2023/01/04 05:06:30;;;;;;;2.40;1.10;;;;;;;10.01;67.78;101284.69;4906153;28;96697;-51
2023/01/04 05:08:56;;;;;;;0.90;0.90;;;;;;;10.03;67.80;101273.97;4906434;28;96706;-51
2023/01/04 05:12:58;;;;;;;1.13;1.13;;;;;;;10.05;67.80;101274.25;4907090;28;96746;-52
2023/01/04 05:14:07;;;;;;;1.07;1.00;;;;;;;10.01;68.15;101266.19;4904982;28;98611;-52
2023/01/04 05:16:33;;;;;;;1.40;1.30;;;;;;;10.05;68.00;101264.00;4907444;28;97357;-50
2023/01/04 05:18:58;;;;;;;3.97;1.10;;;;;;;10.08;68.05;101246.59;4905760;28;96851;-51
2023/01/04 05:21:24;;;;;;;0.93;0.80;;;;;;;10.09;68.47;101250.84;4906763;28;97221;-52
2023/01/04 05:23:49;;;;;;;0.80;0.80;;;;;;;10.11;68.21;101242.91;4906273;28;99542;-52
2023/01/04 05:26:14;;;;;;;3.50;1.00;;;;;;;10.13;68.43;101234.97;4904759;28;97450;-52
2023/01/04 05:28:39;;;;;;;1.43;0.80;;;;;;;10.15;68.33;101231.72;4906441;28;97069;-53
2023/01/04 05:31:05;;;;;;;1.00;0.90;;;;;;;10.19;68.45;101226.78;4906356;28;96924;-52
2023/01/04 05:33:31;;;;;;;4.90;1.10;;;;;;;10.19;68.46;101238.56;4905339;28;101978;-52
2023/01/04 05:35:59;;;;;;;0.70;0.63;;;;;;;10.24;68.58;101207.63;4904945;28;96880;-51
2023/01/04 05:38:25;;;;;;;3.17;0.87;;;;;;;10.28;68.46;101202.72;4905978;28;97341;-53
2023/01/04 05:40:51;;;;;;;1.10;1.10;;;;;;;10.28;68.48;101194.47;4906119;28;97067;-53
2023/01/04 05:43:17;;;;;;;2.13;1.00;;;;;;;10.28;68.59;101186.22;4906040;28;97919;-56
2023/01/04 05:45:46;;;;;;;2.30;0.80;;;;;;;10.30;68.76;101175.47;4906333;28;96756;-53
2023/01/04 05:48:12;;;;;;;3.50;0.67;;;;;;;10.32;68.82;101167.50;4904477;28;96956;-52
2023/01/04 05:50:37;;;;;;;1.37;0.80;;;;;;;10.32;69.24;101167.50;4905678;28;97060;-52
2023/01/04 05:53:03;;;;;;;1.50;0.93;;;;;;;10.36;69.03;101159.06;4904103;28;96965;-52
2023/01/04 05:55:28;;;;;;;1.37;0.80;;;;;;;10.39;69.06;101153.38;4904638;28;97339;-53
2023/01/04 05:57:54;;;;;;;0.80;0.80;;;;;;;10.39;69.31;101141.59;4907093;28;96868;-52
2023/01/04 06:00:19;;;;;;;1.43;0.73;;;;;;;10.41;69.31;101145.41;4905821;28;97210;-53
2023/01/04 06:02:45;;;;;;;1.03;1.03;;;;;;;10.37;69.77;101138.59;4903873;28;97356;-52
2023/01/04 06:05:11;;;;;;;1.20;0.67;;;;;;;10.43;69.55;101139.41;4905566;28;97637;-52
2023/01/04 06:07:38;;;;;;;2.57;1.10;;;;;;;10.43;69.64;101134.66;4907031;28;96940;-51
2023/01/04 06:10:08;;;;;;;1.13;0.83;;;;;;;10.47;69.55;101132.47;4904452;28;96826;-52
2023/01/04 06:12:33;;;;;;;1.10;0.90;;;;;;;10.51;69.58;101129.50;4904703;28;97431;-52
2023/01/04 06:14:58;;;;;;;0.93;0.70;;;;;;;10.54;69.64;101125.81;4905527;28;97033;-52
2023/01/04 06:17:24;;;;;;;0.60;0.60;;;;;;;10.60;69.63;101106.59;4905013;28;99759;-52
2023/01/04 06:19:49;;;;;;;2.30;0.80;;;;;;;10.62;69.53;101104.13;4905812;28;97052;-51
2023/01/04 06:22:15;;;;;;;2.27;0.73;;;;;;;10.64;69.45;101096.91;4905744;28;96398;-53
2023/01/04 06:24:40;;;;;;;0.90;0.90;;;;;;;10.67;69.38;101084.97;4897811;28;97671;-53
2023/01/04 06:27:05;;;;;;;1.50;0.87;;;;;;;10.69;69.49;101078.97;4905061;28;96738;-51
2023/01/04 06:29:31;;;;;;;3.03;1.23;;;;;;;10.67;69.63;101078.69;4897076;28;97500;-51
2023/01/04 06:31:56;;;;;;;0.70;0.60;;;;;;;10.68;69.70;101075.44;4904244;28;97392;-52
2023/01/04 06:34:21;;;;;;;2.00;0.80;;;;;;;10.67;69.79;101073.94;4902916;28;96723;-52
2023/01/04 06:36:47;;;;;;;1.47;0.70;;;;;;;10.69;69.94;101081.72;4903181;28;97300;-52
2023/01/04 06:39:12;;;;;;;2.13;0.83;;;;;;;10.70;69.89;101069.47;4902391;28;97374;-51
2023/01/04 06:41:38;;;;;;;0.90;0.70;;;;;;;10.72;70.18;101075.25;4902786;28;98186;-54
2023/01/04 06:44:03;;;;;;;1.43;0.90;;;;;;;10.75;70.11;101077.03;4904229;28;97205;-53
2023/01/04 06:46:29;;;;;;;0.97;0.70;;;;;;;10.75;70.21;101077.03;4904002;28;97430;-52
2023/01/04 06:48:54;;;;;;;1.23;0.80;;;;;;;10.76;70.10;101078.56;4902314;28;97130;-53
2023/01/04 06:51:20;;;;;;;0.70;0.60;;;;;;;10.80;70.08;101073.59;4903658;28;97494;-52
2023/01/04 06:53:46;;;;;;;0.80;0.80;;;;;;;10.84;69.88;101079.63;4908093;28;96939;-52
2023/01/04 06:56:12;;;;;;;0.70;0.70;;;;;;;10.89;69.83;101076.97;4906216;28;97073;-52
2023/01/04 06:58:37;;;;;;;0.80;0.70;;;;;;;10.94;69.88;101075.50;4906906;28;97001;-53
2023/01/04 07:01:03;;;;;;;1.10;0.90;;;;;;;10.97;69.80;101082.78;4905314;28;97435;-51
2023/01/04 07:03:28;;;;;;;0.80;0.60;;;;;;;10.98;69.86;101078.81;4906202;28;97837;-54
2023/01/04 07:05:53;;;;;;;1.00;0.60;;;;;;;11.01;69.83;101072.31;4907004;28;96967;-53
2023/01/04 07:08:19;;;;;;;1.50;0.87;;;;;;;11.03;70.06;101073.34;4889158;28;97466;-52
2023/01/04 07:10:45;;;;;;;0.80;0.80;;;;;;;11.06;69.91;101077.88;4906524;28;97227;-52
2023/01/04 07:13:10;;;;;;;1.70;0.67;;;;;;;11.10;69.83;101066.66;4905793;28;97767;-51
2023/01/04 07:15:36;;;;;;;0.63;0.60;;;;;;;11.10;70.30;101066.66;4907504;28;98549;-53
2023/01/04 07:18:01;;;;;;;1.13;0.57;;;;;;;11.13;70.20;101062.94;4919882;28;97324;-51
2023/01/04 07:20:27;;;;;;;2.07;0.70;;;;;;;11.16;70.14;101059.22;4906005;28;97674;-54
2023/01/04 07:22:52;;;;;;;5.93;0.60;;;;;;;11.17;70.36;101047.72;4906375;28;99092;-53
2023/01/04 07:25:18;;;;;;;1.57;0.47;;;;;;;11.20;70.36;101051.50;4905234;28;97440;-51
2023/01/04 07:27:43;;;;;;;0.73;0.47;;;;;;;11.26;70.18;101044.03;4904559;28;97153;-51
2023/01/04 07:30:09;;;;;;;0.97;0.50;;;;;;;11.30;70.11;101039.06;4905765;28;97494;-54
2023/01/04 07:32:35;;;;;;;1.37;0.63;;;;;;;11.31;70.24;101041.31;4905464;28;97128;-53
2023/01/04 07:35:00;;;;;;;0.73;0.53;;;;;;;11.35;70.41;101046.63;4897806;28;97007;-53
2023/01/04 07:37:26;;;;;;;0.70;0.60;;;;;;;11.40;70.42;101036.91;4906710;28;97057;-51
2023/01/04 07:39:51;;;;;;;0.77;0.77;;;;;;;11.43;70.51;101031.16;4907175;28;96978;-52
2023/01/04 07:42:18;;;;;;;0.80;0.50;;;;;;;11.49;70.59;101040.22;4906084;28;96824;-52
2023/01/04 07:44:44;;;;;;;0.50;0.40;;;;;;;11.53;70.44;101021.47;4905164;28;97066;-52
2023/01/04 07:47:09;;;;;;;0.97;0.80;;;;;;;11.58;70.48;101029.03;4906028;28;96936;-55
2023/01/04 07:49:35;;;;;;;0.80;0.80;;;;;;;11.61;70.70;101028.06;4906713;28;97185;-52
2023/01/04 07:52:00;;;;;;;0.93;0.60;;;;;;;11.64;70.60;101018.78;4905482;28;97439;-53
2023/01/04 07:54:25;;;;;;;0.50;0.50;;;;;;;11.70;70.90;101027.91;4905970;28;96721;-54
2023/01/04 07:56:51;;;;;;;1.20;0.70;;;;;;;11.71;70.72;101018.38;4906631;28;96820;-52
2023/01/04 07:59:19;;;;;;;0.50;0.50;;;;;;;11.75;70.87;101024.41;4904596;28;97275;-51
2023/01/04 08:01:45;;;;;;;1.00;0.80;;;;;;;11.78;70.75;101039.97;4902934;28;97276;-53
2023/01/04 08:04:12;;;;;;;0.60;0.57;;;;;;;11.81;71.00;101025.22;4889629;28;97257;-51
2023/01/04 08:06:38;;;;;;;0.60;0.53;;;;;;;11.85;70.99;101031.25;4906328;28;97131;-51
2023/01/04 08:09:04;;;;;;;0.60;0.60;;;;;;;11.90;70.84;101044.31;4905237;28;97794;-51
2023/01/04 08:11:30;;;;;;;0.70;0.70;;;;;;;11.95;70.77;101035.31;4906557;28;99567;-51
2023/01/04 08:13:56;;;;;;;0.90;0.60;;;;;;;11.97;71.04;101038.34;4905653;28;97559;-55
2023/01/04 08:16:26;;;;;;;0.80;0.57;;;;;;;12.01;70.57;101046.41;4905874;28;97079;-51
2023/01/04 08:18:57;;;;;;;0.60;0.60;;;;;;;12.03;70.78;101041.16;4904396;28;97374;-50
2023/01/04 08:21:24;;;;;;;0.83;0.83;;;;;;;12.07;70.83;101038.16;4903107;28;102446;-53
2023/01/04 08:23:51;;;;;;;0.90;0.60;;;;;;;12.11;70.75;101038.66;4906369;28;97515;-52
2023/01/04 08:26:16;;;;;;;2.50;1.00;;;;;;;12.13;70.72;101036.16;4904742;28;97522;-52
2023/01/04 08:28:42;;;;;;;0.80;0.80;;;;;;;12.17;70.86;101031.94;4905578;28;97121;-51
2023/01/04 08:31:13;;;;;;;0.70;0.70;;;;;;;12.20;70.77;101030.94;4905167;28;97134;-52
2023/01/04 08:33:40;;;;;;;0.80;0.80;;;;;;;12.22;70.79;101027.69;4906030;28;97202;-51
2023/01/04 08:36:11;;;;;;;1.43;0.50;;;;;;;12.23;70.73;101029.22;4905172;28;97643;-52
2023/01/04 08:38:36;;;;;;;1.17;0.70;;;;;;;12.25;70.63;101027.47;4904948;28;97322;-52
2023/01/04 08:41:02;;;;;;;0.77;0.77;;;;;;;12.26;70.63;101033.72;4905029;28;97317;-52
2023/01/04 08:43:27;;;;;;;0.77;0.70;;;;;;;12.28;70.84;101036.75;4894564;28;98422;-53
2023/01/04 08:45:53;;;;;;;0.50;0.50;;;;;;;12.31;70.87;101050.31;4905763;28;97111;-53
2023/01/04 08:48:18;;;;;;;0.60;0.60;;;;;;;12.30;71.01;101042.53;4904465;28;97523;-53
2023/01/04 08:50:44;;;;;;;0.63;0.63;;;;;;;12.33;70.81;101044.31;4903054;28;97792;-52
2023/01/04 08:53:09;;;;;;;0.50;0.50;;;;;;;12.34;70.80;101037.53;4903160;28;96670;-51
2023/01/04 08:55:35;;;;;;;0.90;0.90;;;;;;;12.32;71.18;101026.97;4905729;28;96932;-53
2023/01/04 08:58:01;;;;;;;1.37;0.60;;;;;;;12.35;71.01;101026.00;4905340;28;97971;-55
2023/01/04 09:00:27;;;;;;;0.60;0.60;;;;;;;12.38;70.88;101019.50;4903310;28;97237;-53
2023/01/04 09:02:52;;;;;;;1.00;0.67;;;;;;;12.37;70.96;101006.94;4904440;28;96910;-51
2023/01/04 09:05:18;;;;;;;0.70;0.70;;;;;;;12.38;70.87;101005.72;4905732;28;97116;-53
2023/01/04 09:07:43;;;;;;;0.90;0.90;;;;;;;12.41;70.97;100995.66;4905789;28;97666;-52
2023/01/04 09:10:09;;;;;;;4.10;0.60;;;;;;;12.39;71.16;101003.69;4904219;28;96783;-52
2023/01/04 09:12:34;;;;;;;0.70;0.70;;;;;;;12.39;71.15;100998.16;4904897;28;97458;-52
2023/01/04 09:15:00;;;;;;;1.70;0.63;;;;;;;12.39;71.32;100998.94;4903998;28;97368;-52
2023/01/04 09:17:25;;;;;;;0.60;0.60;;;;;;;12.39;71.59;100996.16;4903443;28;97534;-53
2023/01/04 09:19:50;;;;;;;1.13;0.57;;;;;;;12.41;71.54;100990.16;4902927;28;97165;-51
2023/01/04 09:22:16;;;;;;;2.13;0.90;;;;;;;12.43;71.41;100971.09;4904909;28;99801;-52
2023/01/04 09:24:41;;;;;;;0.50;0.50;;;;;;;12.46;71.40;100986.66;4904908;28;97043;-52
2023/01/04 09:27:06;;;;;;;1.00;0.60;;;;;;;12.45;71.40;100972.09;4903033;28;97385;-51
2023/01/04 09:29:32;;;;;;;0.60;0.57;;;;;;;12.47;71.44;100982.66;4905127;28;97769;-55
2023/01/04 09:31:57;;;;;;;0.80;0.70;;;;;;;12.49;71.68;100971.88;4901627;28;97270;-51
2023/01/04 09:34:23;;;;;;;0.50;0.50;;;;;;;12.46;71.94;100967.34;4903505;28;96786;-53
2023/01/04 09:36:48;;;;;;;0.57;0.57;;;;;;;12.46;72.08;100970.09;4904789;28;97133;-52
2023/01/04 09:39:14;;;;;;;0.50;0.50;;;;;;;12.48;71.78;100964.84;4903805;28;97265;-52
2023/01/04 09:42:04;;;;;;;0.50;0.50;;;;;;;12.50;73.09;100965.09;4904259;28;96986;-51
2023/01/04 09:44:42;;;;;;;0.50;0.50;;;;;;;12.55;72.19;100961.59;4902504;28;97353;-51
2023/01/04 09:47:13;;;;;;;1.20;0.50;;;;;;;12.58;71.83;100964.09;4904328;28;96929;-53
2023/01/04 09:49:44;;;;;;;1.70;0.60;;;;;;;12.61;71.86;100949.31;4902104;28;97288;-51
2023/01/04 09:52:23;;;;;;;3.17;0.70;;;;;;;12.63;72.04;100951.56;4904040;28;96982;-50
2023/01/04 09:54:59;;;;;;;0.80;0.80;;;;;;;12.64;71.87;100936.53;4904018;28;98565;-54
2023/01/04 09:57:42;;;;;;;0.57;0.57;;;;;;;12.66;72.31;100956.09;4905317;28;100743;-50
2023/01/04 10:00:35;;;;;;;0.60;0.60;;;;;;;12.67;72.43;100947.31;4903333;28;100140;-50
2023/01/04 10:03:11;;;;;;;0.70;0.70;;;;;;;12.72;71.98;100943.06;4905024;28;97507;-52
2023/01/04 10:05:37;;;;;;;0.60;0.60;;;;;;;12.74;71.67;100940.56;4904506;28;97050;-50
2023/01/04 10:08:02;;;;;;;2.10;0.70;;;;;;;12.75;71.76;100945.56;4905440;28;97732;-52
2023/01/04 10:10:56;;;;;;;0.70;0.70;;;;;;;12.74;72.74;100944.06;4904734;28;98314;-51
2023/01/04 10:13:52;;;;;;;0.87;0.87;;;;;;;12.78;72.47;100943.81;4905200;28;96852;-51
2023/01/04 10:16:40;;;;;;;1.00;0.93;;;;;;;12.77;72.21;100940.31;4904257;28;97089;-50
2023/01/04 10:19:27;;;;;;;1.10;1.10;;;;;;;12.80;72.27;100938.53;4894217;28;97124;-53
2023/01/04 10:21:57;;;;;;;1.23;0.70;;;;;;;12.80;72.10;100941.31;4904161;28;100162;-52
2023/01/04 10:24:54;;;;;;;1.30;1.13;;;;;;;12.82;72.60;100939.56;4903965;28;97231;-53
2023/01/04 10:27:51;;;;;;;0.70;0.70;;;;;;;12.86;72.38;100927.53;4887918;28;97223;-52
2023/01/04 10:30:24;;;;;;;2.10;0.50;;;;;;;12.87;72.17;100920.72;4903509;28;100581;-52
2023/01/04 10:33:33;;;;;;;0.77;0.57;;;;;;;12.88;72.44;100922.25;4904371;28;98412;-51
2023/01/04 10:36:00;;;;;;;0.70;0.60;;;;;;;12.88;71.95;100917.50;4907711;28;96796;-51
2023/01/04 10:38:31;;;;;;;0.60;0.60;;;;;;;12.91;71.88;100919.22;4889709;28;97565;-51
2023/01/04 10:41:04;;;;;;;0.40;0.40;;;;;;;12.91;72.12;100915.72;4904622;28;97411;-52
2023/01/04 10:43:40;;;;;;;0.60;0.50;;;;;;;12.95;72.12;100916.22;4902835;28;97338;-51
2023/01/04 10:46:31;;;;;;;0.90;0.70;;;;;;;12.95;72.71;100917.00;4905159;28;97488;-52
2023/01/04 10:49:06;;;;;;;0.50;0.50;;;;;;;12.97;71.92;100908.19;4905132;28;97090;-51
2023/01/04 10:51:40;;;;;;;0.53;0.50;;;;;;;12.97;72.18;100903.44;4903257;28;97441;-52
2023/01/04 10:54:18;;;;;;;1.10;0.60;;;;;;;13.00;72.31;100896.88;4904022;28;96965;-52
2023/01/04 10:57:03;;;;;;;0.80;0.60;;;;;;;13.02;72.63;100899.91;4904632;28;96924;-52
2023/01/04 10:59:41;;;;;;;0.50;0.40;;;;;;;13.06;72.25;100894.91;4903949;28;97422;-52
2023/01/04 11:02:18;;;;;;;1.93;0.50;;;;;;;13.09;71.99;100884.84;4900818;28;97194;-52
2023/01/04 11:05:06;;;;;;;0.60;0.60;;;;;;;13.13;72.28;100901.91;4897988;28;97786;-51
2023/01/04 11:07:40;;;;;;;1.83;0.57;;;;;;;13.14;72.04;100890.38;4904356;28;104720;-51
2023/01/04 11:10:11;;;;;;;0.50;0.50;;;;;;;13.15;71.89;100889.13;4904398;28;97369;-54
2023/01/04 11:12:37;;;;;;;0.60;0.50;;;;;;;13.16;72.00;100876.81;4904474;28;97938;-53
2023/01/04 11:15:03;;;;;;;0.80;0.40;;;;;;;13.19;71.95;100875.78;4905637;28;97663;-52
2023/01/04 11:17:31;;;;;;;0.50;0.40;;;;;;;13.21;72.08;100867.78;4905680;28;97823;-51
2023/01/04 11:19:57;;;;;;;0.50;0.40;;;;;;;13.19;72.19;100864.00;4904456;28;96816;-52
2023/01/04 11:22:25;;;;;;;0.83;0.50;;;;;;;13.23;72.23;100859.75;4903894;28;97050;-52
2023/01/04 11:24:56;;;;;;;0.50;0.43;;;;;;;13.27;72.12;100856.72;4901837;28;97124;-51
2023/01/04 11:27:27;;;;;;;0.40;0.37;;;;;;;13.30;71.94;100842.63;4902048;28;96920;-51
2023/01/04 11:30:02;;;;;;;1.10;0.40;;;;;;;13.29;72.01;100857.72;4902908;28;97435;-52
2023/01/04 11:32:50;;;;;;;0.50;0.50;;;;;;;13.26;73.07;100852.44;4904321;28;97436;-52
2023/01/04 11:35:15;;;;;;;0.43;0.30;;;;;;;13.25;72.25;100848.94;4904522;28;101394;-52
2023/01/04 11:37:41;;;;;;;0.97;0.40;;;;;;;13.28;72.13;100855.47;4908225;28;96788;-51
2023/01/04 11:40:15;;;;;;;0.50;0.40;;;;;;;13.30;72.19;100858.47;4908147;28;97469;-52
2023/01/04 11:42:41;;;;;;;0.50;0.40;;;;;;;13.29;72.18;100852.19;4906635;28;97416;-52
2023/01/04 11:45:26;;;;;;;0.53;0.40;;;;;;;13.28;72.56;100841.66;4906409;28;97237;-52
2023/01/04 11:47:54;;;;;;;0.50;0.40;;;;;;;13.28;72.24;100842.38;4906798;28;96818;-52
2023/01/04 11:50:39;;;;;;;0.50;0.40;;;;;;;13.30;72.52;100841.88;4905813;28;96999;-51
2023/01/04 11:53:34;;;;;;;0.50;0.30;;;;;;;13.30;72.83;100830.84;4906767;28;100627;-51
2023/01/04 11:56:21;;;;;;;0.47;0.40;;;;;;;13.36;73.19;100821.28;4898283;28;101021;-51
2023/01/04 11:59:14;;;;;;;0.60;0.50;;;;;;;13.35;73.01;100828.03;4904848;28;97101;-52
2023/01/04 12:01:48;;;;;;;0.90;0.37;;;;;;;13.37;72.31;100827.53;4904218;28;97547;-52
2023/01/04 12:04:25;;;;;;;0.50;0.47;;;;;;;13.39;72.44;100825.00;4903977;28;102325;-51
2023/01/04 12:06:54;;;;;;;1.13;0.40;;;;;;;13.38;72.32;100824.28;4903659;28;100192;-51
2023/01/04 12:09:20;;;;;;;0.77;0.30;;;;;;;13.43;72.20;100808.94;4905092;28;97018;-51
2023/01/04 12:11:55;;;;;;;0.50;0.40;;;;;;;13.45;72.46;100803.66;4905366;28;97636;-51
2023/01/04 12:14:44;;;;;;;0.50;0.40;;;;;;;13.41;73.18;100817.00;4893198;28;101284;-51
2023/01/04 12:17:09;;;;;;;0.40;0.30;;;;;;;13.42;72.43;100808.19;4904864;28;101685;-52
2023/01/04 12:19:35;;;;;;;0.50;0.40;;;;;;;13.43;72.60;100803.41;4905050;28;97753;-51
2023/01/04 12:22:03;;;;;;;0.50;0.40;;;;;;;13.45;72.60;100809.91;4906557;28;97232;-52